sensor_id;sensor_type;location;lat;lon;timestamp;temperature;humidity
29803;DHT22;16702;50.898;4.662;2024-03-02T00:05:56;9.50;99.90
29803;DHT22;16702;50.898;4.662;2024-03-02T00:09:30;9.50;99.90
29803;DHT22;16702;50.898;4.662;2024-03-02T00:12:17;9.50;99.90
29803;DHT22;16702;50.898;4.662;2024-03-02T00:15:19;9.50;99.90
29803;DHT22;16702;50.898;4.662;2024-03-02T00:18:42;9.50;99.90
29803;DHT22;16702;50.898;4.662;2024-03-02T00:21:39;9.40;99.90
29803;DHT22;16702;50.898;4.662;2024-03-02T00:24:54;9.40;99.90
29803;DHT22;16702;50.898;4.662;2024-03-02T00:27:45;9.30;99.90
29803;DHT22;16702;50.898;4.662;2024-03-02T00:30:54;9.40;99.90
29803;DHT22;16702;50.898;4.662;2024-03-02T00:34:06;9.30;99.90
29803;DHT22;16702;50.898;4.662;2024-03-02T00:37:39;9.30;99.90
29803;DHT22;16702;50.898;4.662;2024-03-02T00:40:13;9.30;99.90
29803;DHT22;16702;50.898;4.662;2024-03-02T00:43:04;9.30;99.90
29803;DHT22;16702;50.898;4.662;2024-03-02T00:45:51;9.20;99.90
29803;DHT22;16702;50.898;4.662;2024-03-02T00:49:59;9.10;99.90
29803;DHT22;16702;50.898;4.662;2024-03-02T00:52:00;9.20;99.90
29803;DHT22;16702;50.898;4.662;2024-03-02T00:55:18;9.20;99.90
29803;DHT22;16702;50.898;4.662;2024-03-02T00:58:28;9.20;99.90
29803;DHT22;16702;50.898;4.662;2024-03-02T01:01:26;9.20;99.90
29803;DHT22;16702;50.898;4.662;2024-03-02T01:04:16;9.30;99.90
29803;DHT22;16702;50.898;4.662;2024-03-02T01:07:16;9.20;99.90
29803;DHT22;16702;50.898;4.662;2024-03-02T01:10:30;9.20;99.90
29803;DHT22;16702;50.898;4.662;2024-03-02T01:13:27;9.20;99.90
29803;DHT22;16702;50.898;4.662;2024-03-02T01:17:09;9.20;99.90
29803;DHT22;16702;50.898;4.662;2024-03-02T01:20:10;9.20;99.90
29803;DHT22;16702;50.898;4.662;2024-03-02T01:23:25;9.20;99.90
29803;DHT22;16702;50.898;4.662;2024-03-02T01:27:02;9.10;99.90
29803;DHT22;16702;50.898;4.662;2024-03-02T01:29:47;9.20;99.90
29803;DHT22;16702;50.898;4.662;2024-03-02T01:33:10;9.20;99.90
29803;DHT22;16702;50.898;4.662;2024-03-02T01:36:39;9.20;99.90
29803;DHT22;16702;50.898;4.662;2024-03-02T01:42:34;9.10;99.90
29803;DHT22;16702;50.898;4.662;2024-03-02T01:42:57;9.20;99.90
29803;DHT22;16702;50.898;4.662;2024-03-02T01:46:04;9.20;99.90
29803;DHT22;16702;50.898;4.662;2024-03-02T01:48:54;9.10;99.90
29803;DHT22;16702;50.898;4.662;2024-03-02T01:52:13;9.10;99.90
29803;DHT22;16702;50.898;4.662;2024-03-02T01:55:21;9.00;99.90
29803;DHT22;16702;50.898;4.662;2024-03-02T01:58:34;9.00;99.90
29803;DHT22;16702;50.898;4.662;2024-03-02T02:02:21;9.00;99.90
29803;DHT22;16702;50.898;4.662;2024-03-02T02:05:05;8.90;99.90
29803;DHT22;16702;50.898;4.662;2024-03-02T02:09:19;9.00;99.90
29803;DHT22;16702;50.898;4.662;2024-03-02T02:11:35;9.00;99.90
29803;DHT22;16702;50.898;4.662;2024-03-02T02:14:34;9.00;99.90
29803;DHT22;16702;50.898;4.662;2024-03-02T02:17:17;9.00;99.90
29803;DHT22;16702;50.898;4.662;2024-03-02T02:20:20;9.10;99.90
29803;DHT22;16702;50.898;4.662;2024-03-02T02:23:10;9.10;99.90
29803;DHT22;16702;50.898;4.662;2024-03-02T02:26:14;9.00;99.90
29803;DHT22;16702;50.898;4.662;2024-03-02T02:29:06;9.00;99.90
29803;DHT22;16702;50.898;4.662;2024-03-02T02:32:22;9.00;99.90
29803;DHT22;16702;50.898;4.662;2024-03-02T02:35:46;9.00;99.90
29803;DHT22;16702;50.898;4.662;2024-03-02T02:38:46;9.00;99.90
29803;DHT22;16702;50.898;4.662;2024-03-02T02:42:00;8.90;99.90
29803;DHT22;16702;50.898;4.662;2024-03-02T02:45:16;9.00;99.90
29803;DHT22;16702;50.898;4.662;2024-03-02T02:48:19;8.90;99.90
29803;DHT22;16702;50.898;4.662;2024-03-02T02:51:28;8.90;99.90
29803;DHT22;16702;50.898;4.662;2024-03-02T02:54:06;8.90;99.90
29803;DHT22;16702;50.898;4.662;2024-03-02T02:56:54;8.90;99.90
29803;DHT22;16702;50.898;4.662;2024-03-02T03:00:04;8.90;99.90
29803;DHT22;16702;50.898;4.662;2024-03-02T03:03:27;8.80;99.90
29803;DHT22;16702;50.898;4.662;2024-03-02T03:06:58;8.80;99.90
29803;DHT22;16702;50.898;4.662;2024-03-02T03:10:51;8.90;99.90
29803;DHT22;16702;50.898;4.662;2024-03-02T03:13:05;8.90;99.90
29803;DHT22;16702;50.898;4.662;2024-03-02T03:16:06;8.80;99.90
29803;DHT22;16702;50.898;4.662;2024-03-02T03:19:16;8.80;99.90
29803;DHT22;16702;50.898;4.662;2024-03-02T03:22:24;8.80;99.90
29803;DHT22;16702;50.898;4.662;2024-03-02T03:28:04;8.80;99.90
29803;DHT22;16702;50.898;4.662;2024-03-02T03:31:21;8.70;99.90
29803;DHT22;16702;50.898;4.662;2024-03-02T03:32:59;8.70;99.90
29803;DHT22;16702;50.898;4.662;2024-03-02T03:35:29;8.70;99.90
29803;DHT22;16702;50.898;4.662;2024-03-02T03:38:50;8.60;99.90
29803;DHT22;16702;50.898;4.662;2024-03-02T03:41:55;8.50;99.90
29803;DHT22;16702;50.898;4.662;2024-03-02T03:45:06;8.60;99.90
29803;DHT22;16702;50.898;4.662;2024-03-02T03:48:18;8.60;99.90
29803;DHT22;16702;50.898;4.662;2024-03-02T03:54:10;8.60;99.90
29803;DHT22;16702;50.898;4.662;2024-03-02T03:54:41;8.60;99.90
29803;DHT22;16702;50.898;4.662;2024-03-02T03:58:49;8.50;99.90
29803;DHT22;16702;50.898;4.662;2024-03-02T04:01:16;8.50;99.90
29803;DHT22;16702;50.898;4.662;2024-03-02T04:04:10;8.50;99.90
29803;DHT22;16702;50.898;4.662;2024-03-02T04:07:31;8.40;99.90
29803;DHT22;16702;50.898;4.662;2024-03-02T04:10:34;8.40;99.90
29803;DHT22;16702;50.898;4.662;2024-03-02T04:13:28;8.50;99.90
29803;DHT22;16702;50.898;4.662;2024-03-02T04:17:54;8.50;99.90
29803;DHT22;16702;50.898;4.662;2024-03-02T04:20:20;8.50;99.90
29803;DHT22;16702;50.898;4.662;2024-03-02T04:23:39;8.40;99.90
29803;DHT22;16702;50.898;4.662;2024-03-02T04:26:54;8.40;99.90
29803;DHT22;16702;50.898;4.662;2024-03-02T04:30:15;8.40;99.90
29803;DHT22;16702;50.898;4.662;2024-03-02T04:34:10;8.40;99.90
29803;DHT22;16702;50.898;4.662;2024-03-02T04:39:25;8.40;99.90
29803;DHT22;16702;50.898;4.662;2024-03-02T04:40:21;8.40;99.90
29803;DHT22;16702;50.898;4.662;2024-03-02T04:43:16;8.30;99.90
29803;DHT22;16702;50.898;4.662;2024-03-02T04:46:17;8.40;99.90
29803;DHT22;16702;50.898;4.662;2024-03-02T04:49:24;8.40;99.90
29803;DHT22;16702;50.898;4.662;2024-03-02T04:52:06;8.30;99.90
29803;DHT22;16702;50.898;4.662;2024-03-02T04:54:56;8.30;99.90
29803;DHT22;16702;50.898;4.662;2024-03-02T04:58:31;8.30;99.90
29803;DHT22;16702;50.898;4.662;2024-03-02T05:02:17;8.30;99.90
29803;DHT22;16702;50.898;4.662;2024-03-02T05:05:13;8.30;99.90
29803;DHT22;16702;50.898;4.662;2024-03-02T05:07:49;8.30;99.90
29803;DHT22;16702;50.898;4.662;2024-03-02T05:11:10;8.30;99.90
29803;DHT22;16702;50.898;4.662;2024-03-02T05:14:27;8.30;99.90
29803;DHT22;16702;50.898;4.662;2024-03-02T05:17:28;8.30;99.90
29803;DHT22;16702;50.898;4.662;2024-03-02T05:20:36;8.30;99.90
29803;DHT22;16702;50.898;4.662;2024-03-02T05:24:06;8.20;99.90
29803;DHT22;16702;50.898;4.662;2024-03-02T05:27:10;8.20;99.90
29803;DHT22;16702;50.898;4.662;2024-03-02T05:31:29;8.20;99.90
29803;DHT22;16702;50.898;4.662;2024-03-02T05:33:46;8.20;99.90
29803;DHT22;16702;50.898;4.662;2024-03-02T05:37:03;8.20;99.90
29803;DHT22;16702;50.898;4.662;2024-03-02T05:40:06;8.20;99.90
29803;DHT22;16702;50.898;4.662;2024-03-02T05:44:08;8.20;99.90
29803;DHT22;16702;50.898;4.662;2024-03-02T05:46:57;8.20;99.90
29803;DHT22;16702;50.898;4.662;2024-03-02T05:50:11;8.10;99.90
29803;DHT22;16702;50.898;4.662;2024-03-02T05:53:33;8.10;99.90
29803;DHT22;16702;50.898;4.662;2024-03-02T05:57:03;8.10;99.90
29803;DHT22;16702;50.898;4.662;2024-03-02T06:00:35;8.10;99.90
29803;DHT22;16702;50.898;4.662;2024-03-02T06:04:16;8.10;99.90
29803;DHT22;16702;50.898;4.662;2024-03-02T06:07:28;8.10;99.90
29803;DHT22;16702;50.898;4.662;2024-03-02T06:10:52;8.10;99.90
29803;DHT22;16702;50.898;4.662;2024-03-02T06:14:43;8.10;99.90
29803;DHT22;16702;50.898;4.662;2024-03-02T06:17:12;8.00;99.90
29803;DHT22;16702;50.898;4.662;2024-03-02T06:20:24;8.10;99.90
29803;DHT22;16702;50.898;4.662;2024-03-02T06:24:09;8.10;99.90
29803;DHT22;16702;50.898;4.662;2024-03-02T06:26:54;8.00;99.90
29803;DHT22;16702;50.898;4.662;2024-03-02T06:29:56;8.00;99.90
29803;DHT22;16702;50.898;4.662;2024-03-02T06:32:48;8.00;99.90
29803;DHT22;16702;50.898;4.662;2024-03-02T06:36:18;8.00;99.90
29803;DHT22;16702;50.898;4.662;2024-03-02T06:39:40;7.90;99.90
29803;DHT22;16702;50.898;4.662;2024-03-02T06:42:24;7.90;99.90
29803;DHT22;16702;50.898;4.662;2024-03-02T06:45:48;7.90;99.90
29803;DHT22;16702;50.898;4.662;2024-03-02T06:49:27;7.90;99.90
29803;DHT22;16702;50.898;4.662;2024-03-02T06:52:49;7.90;99.90
29803;DHT22;16702;50.898;4.662;2024-03-02T06:55:55;7.90;99.90
29803;DHT22;16702;50.898;4.662;2024-03-02T07:01:31;7.80;99.90
29803;DHT22;16702;50.898;4.662;2024-03-02T07:02:31;7.90;99.90
29803;DHT22;16702;50.898;4.662;2024-03-02T07:05:26;7.90;99.90
29803;DHT22;16702;50.898;4.662;2024-03-02T07:08:20;7.90;99.90
29803;DHT22;16702;50.898;4.662;2024-03-02T07:11:18;7.80;99.90
29803;DHT22;16702;50.898;4.662;2024-03-02T07:14:08;7.80;99.90
29803;DHT22;16702;50.898;4.662;2024-03-02T07:17:23;7.90;99.90
29803;DHT22;16702;50.898;4.662;2024-03-02T07:20:18;7.80;99.90
29803;DHT22;16702;50.898;4.662;2024-03-02T07:25:24;7.70;99.90
29803;DHT22;16702;50.898;4.662;2024-03-02T07:26:54;7.90;99.90
29803;DHT22;16702;50.898;4.662;2024-03-02T07:30:07;7.90;99.90
29803;DHT22;16702;50.898;4.662;2024-03-02T07:32:37;7.90;99.90
29803;DHT22;16702;50.898;4.662;2024-03-02T07:35:47;7.90;99.90
29803;DHT22;16702;50.898;4.662;2024-03-02T07:38:49;7.90;99.90
29803;DHT22;16702;50.898;4.662;2024-03-02T07:41:39;7.90;99.90
29803;DHT22;16702;50.898;4.662;2024-03-02T07:45:01;8.10;99.90
29803;DHT22;16702;50.898;4.662;2024-03-02T07:47:53;8.00;99.90
29803;DHT22;16702;50.898;4.662;2024-03-02T07:50:54;8.00;99.90
29803;DHT22;16702;50.898;4.662;2024-03-02T07:53:51;8.00;99.90
29803;DHT22;16702;50.898;4.662;2024-03-02T07:56:50;7.90;99.90
29803;DHT22;16702;50.898;4.662;2024-03-02T07:59:49;8.00;99.90
29803;DHT22;16702;50.898;4.662;2024-03-02T08:05:37;8.00;99.90
29803;DHT22;16702;50.898;4.662;2024-03-02T08:09:41;8.10;99.90
29803;DHT22;16702;50.898;4.662;2024-03-02T08:12:39;8.10;99.90
29803;DHT22;16702;50.898;4.662;2024-03-02T08:15:29;8.20;99.90
29803;DHT22;16702;50.898;4.662;2024-03-02T08:18:39;8.20;99.90
29803;DHT22;16702;50.898;4.662;2024-03-02T08:21:46;8.20;99.90
29803;DHT22;16702;50.898;4.662;2024-03-02T08:25:31;8.30;99.90
29803;DHT22;16702;50.898;4.662;2024-03-02T08:28:07;8.30;99.90
29803;DHT22;16702;50.898;4.662;2024-03-02T08:31:27;8.40;99.90
29803;DHT22;16702;50.898;4.662;2024-03-02T08:34:39;8.40;99.90
29803;DHT22;16702;50.898;4.662;2024-03-02T08:40:59;8.50;99.90
29803;DHT22;16702;50.898;4.662;2024-03-02T08:43:57;8.50;99.90
29803;DHT22;16702;50.898;4.662;2024-03-02T08:47:29;8.60;99.90
29803;DHT22;16702;50.898;4.662;2024-03-02T08:51:08;8.60;99.90
29803;DHT22;16702;50.898;4.662;2024-03-02T08:53:53;8.80;99.90
29803;DHT22;16702;50.898;4.662;2024-03-02T08:56:33;8.80;99.90
29803;DHT22;16702;50.898;4.662;2024-03-02T08:59:15;8.80;99.90
29803;DHT22;16702;50.898;4.662;2024-03-02T09:02:25;8.90;99.90
29803;DHT22;16702;50.898;4.662;2024-03-02T09:07:57;8.90;99.90
29803;DHT22;16702;50.898;4.662;2024-03-02T09:08:39;9.00;99.90
29803;DHT22;16702;50.898;4.662;2024-03-02T09:12:00;9.00;99.90
29803;DHT22;16702;50.898;4.662;2024-03-02T09:18:17;9.00;99.90
29803;DHT22;16702;50.898;4.662;2024-03-02T09:21:17;9.00;99.90
29803;DHT22;16702;50.898;4.662;2024-03-02T09:24:24;9.20;99.90
29803;DHT22;16702;50.898;4.662;2024-03-02T09:27:30;9.20;99.90
29803;DHT22;16702;50.898;4.662;2024-03-02T09:30:22;9.40;99.90
29803;DHT22;16702;50.898;4.662;2024-03-02T09:33:05;9.30;99.90
29803;DHT22;16702;50.898;4.662;2024-03-02T09:36:14;9.40;99.90
29803;DHT22;16702;50.898;4.662;2024-03-02T09:39:27;9.40;99.90
29803;DHT22;16702;50.898;4.662;2024-03-02T09:42:27;9.50;99.90
29803;DHT22;16702;50.898;4.662;2024-03-02T09:45:38;9.60;99.90
29803;DHT22;16702;50.898;4.662;2024-03-02T09:52:55;9.70;99.90
29803;DHT22;16702;50.898;4.662;2024-03-02T09:56:15;9.80;99.90
29803;DHT22;16702;50.898;4.662;2024-03-02T09:59:31;9.90;99.90
29803;DHT22;16702;50.898;4.662;2024-03-02T10:02:46;9.90;99.90
29803;DHT22;16702;50.898;4.662;2024-03-02T10:05:53;9.90;99.90
29803;DHT22;16702;50.898;4.662;2024-03-02T10:09:10;10.00;99.90
29803;DHT22;16702;50.898;4.662;2024-03-02T10:12:11;10.00;99.90
29803;DHT22;16702;50.898;4.662;2024-03-02T10:15:31;10.20;99.90
29803;DHT22;16702;50.898;4.662;2024-03-02T10:19:05;10.30;99.90
29803;DHT22;16702;50.898;4.662;2024-03-02T10:22:48;10.30;99.90
29803;DHT22;16702;50.898;4.662;2024-03-02T10:25:30;10.40;99.90
29803;DHT22;16702;50.898;4.662;2024-03-02T10:28:37;10.40;99.90
29803;DHT22;16702;50.898;4.662;2024-03-02T10:32:07;10.50;99.90
29803;DHT22;16702;50.898;4.662;2024-03-02T10:36:25;10.60;99.90
29803;DHT22;16702;50.898;4.662;2024-03-02T10:38:43;10.70;99.90
29803;DHT22;16702;50.898;4.662;2024-03-02T10:42:03;10.80;99.90
29803;DHT22;16702;50.898;4.662;2024-03-02T10:45:06;10.90;99.90
29803;DHT22;16702;50.898;4.662;2024-03-02T10:47:56;11.10;99.90
29803;DHT22;16702;50.898;4.662;2024-03-02T10:50:57;11.10;99.90
29803;DHT22;16702;50.898;4.662;2024-03-02T10:54:13;11.10;99.90
29803;DHT22;16702;50.898;4.662;2024-03-02T10:57:17;11.20;99.90
29803;DHT22;16702;50.898;4.662;2024-03-02T11:01:57;11.20;99.90
29803;DHT22;16702;50.898;4.662;2024-03-02T11:06:17;11.30;99.90
29803;DHT22;16702;50.898;4.662;2024-03-02T11:06:54;11.50;99.90
29803;DHT22;16702;50.898;4.662;2024-03-02T11:09:56;11.50;99.90
29803;DHT22;16702;50.898;4.662;2024-03-02T11:17:02;11.40;99.90
29803;DHT22;16702;50.898;4.662;2024-03-02T11:19:58;11.60;99.90
29803;DHT22;16702;50.898;4.662;2024-03-02T11:23:06;11.60;99.90
29803;DHT22;16702;50.898;4.662;2024-03-02T11:28:34;11.90;99.90
29803;DHT22;16702;50.898;4.662;2024-03-02T11:34:20;11.80;99.90
29803;DHT22;16702;50.898;4.662;2024-03-02T11:36:36;11.90;99.90
29803;DHT22;16702;50.898;4.662;2024-03-02T11:39:54;11.90;99.90
29803;DHT22;16702;50.898;4.662;2024-03-02T11:42:52;12.00;99.90
29803;DHT22;16702;50.898;4.662;2024-03-02T11:45:48;12.20;99.90
29803;DHT22;16702;50.898;4.662;2024-03-02T11:48:58;12.30;99.90
29803;DHT22;16702;50.898;4.662;2024-03-02T11:52:05;12.20;99.90
29803;DHT22;16702;50.898;4.662;2024-03-02T11:55:02;12.30;99.90
29803;DHT22;16702;50.898;4.662;2024-03-02T11:58:38;12.30;99.90
29803;DHT22;16702;50.898;4.662;2024-03-02T12:01:29;12.50;99.90
29803;DHT22;16702;50.898;4.662;2024-03-02T12:04:07;12.50;99.90
29803;DHT22;16702;50.898;4.662;2024-03-02T12:07:40;12.50;99.90
29803;DHT22;16702;50.898;4.662;2024-03-02T12:10:35;12.60;99.90
29803;DHT22;16702;50.898;4.662;2024-03-02T12:13:28;12.50;99.90
29803;DHT22;16702;50.898;4.662;2024-03-02T12:20:39;12.60;99.90
29803;DHT22;16702;50.898;4.662;2024-03-02T12:24:08;12.70;99.90
29803;DHT22;16702;50.898;4.662;2024-03-02T12:30:00;12.90;99.90
29803;DHT22;16702;50.898;4.662;2024-03-02T12:32:48;12.80;99.90
29803;DHT22;16702;50.898;4.662;2024-03-02T12:35:37;13.10;99.90
29803;DHT22;16702;50.898;4.662;2024-03-02T12:38:42;13.10;99.90
29803;DHT22;16702;50.898;4.662;2024-03-02T12:46:38;12.90;99.90
29803;DHT22;16702;50.898;4.662;2024-03-02T12:51:27;12.80;99.90
29803;DHT22;16702;50.898;4.662;2024-03-02T12:52:24;12.80;99.90
29803;DHT22;16702;50.898;4.662;2024-03-02T12:56:14;12.80;99.90
29803;DHT22;16702;50.898;4.662;2024-03-02T12:58:48;12.80;99.90
29803;DHT22;16702;50.898;4.662;2024-03-02T13:02:16;12.70;99.90
29803;DHT22;16702;50.898;4.662;2024-03-02T13:05:09;12.80;99.90
29803;DHT22;16702;50.898;4.662;2024-03-02T13:08:09;13.00;99.90
29803;DHT22;16702;50.898;4.662;2024-03-02T13:11:11;13.00;99.90
29803;DHT22;16702;50.898;4.662;2024-03-02T13:14:38;13.00;99.90
29803;DHT22;16702;50.898;4.662;2024-03-02T13:17:35;13.00;99.90
29803;DHT22;16702;50.898;4.662;2024-03-02T13:20:17;13.00;99.90
29803;DHT22;16702;50.898;4.662;2024-03-02T13:23:33;13.00;99.90
29803;DHT22;16702;50.898;4.662;2024-03-02T13:26:55;13.00;99.90
29803;DHT22;16702;50.898;4.662;2024-03-02T13:30:46;13.00;99.90
29803;DHT22;16702;50.898;4.662;2024-03-02T13:34:20;13.20;99.90
29803;DHT22;16702;50.898;4.662;2024-03-02T13:38:12;13.20;99.90
29803;DHT22;16702;50.898;4.662;2024-03-02T13:41:16;13.20;99.90
29803;DHT22;16702;50.898;4.662;2024-03-02T13:43:36;13.20;99.90
29803;DHT22;16702;50.898;4.662;2024-03-02T13:46:34;13.20;99.90
29803;DHT22;16702;50.898;4.662;2024-03-02T13:49:35;13.20;99.90
29803;DHT22;16702;50.898;4.662;2024-03-02T13:52:27;13.20;99.90
29803;DHT22;16702;50.898;4.662;2024-03-02T13:55:46;13.20;99.90
29803;DHT22;16702;50.898;4.662;2024-03-02T13:58:45;13.10;99.90
29803;DHT22;16702;50.898;4.662;2024-03-02T14:02:09;13.20;99.90
29803;DHT22;16702;50.898;4.662;2024-03-02T14:05:05;13.20;99.90
29803;DHT22;16702;50.898;4.662;2024-03-02T14:07:56;13.20;99.90
29803;DHT22;16702;50.898;4.662;2024-03-02T14:10:54;13.20;99.90
29803;DHT22;16702;50.898;4.662;2024-03-02T14:13:40;13.20;99.90
29803;DHT22;16702;50.898;4.662;2024-03-02T14:17:00;13.30;99.90
29803;DHT22;16702;50.898;4.662;2024-03-02T14:20:41;13.20;99.90
29803;DHT22;16702;50.898;4.662;2024-03-02T14:23:52;13.20;99.90
29803;DHT22;16702;50.898;4.662;2024-03-02T14:27:55;13.20;99.90
29803;DHT22;16702;50.898;4.662;2024-03-02T14:32:12;13.20;99.90
29803;DHT22;16702;50.898;4.662;2024-03-02T14:33:12;13.20;99.90
29803;DHT22;16702;50.898;4.662;2024-03-02T14:36:09;13.10;99.90
29803;DHT22;16702;50.898;4.662;2024-03-02T14:41:38;13.10;99.90
29803;DHT22;16702;50.898;4.662;2024-03-02T14:42:21;13.10;99.90
29803;DHT22;16702;50.898;4.662;2024-03-02T14:45:09;13.10;99.90
29803;DHT22;16702;50.898;4.662;2024-03-02T14:49:33;13.20;99.90
29803;DHT22;16702;50.898;4.662;2024-03-02T14:51:54;13.20;99.90
29803;DHT22;16702;50.898;4.662;2024-03-02T14:54:54;13.20;99.90
29803;DHT22;16702;50.898;4.662;2024-03-02T15:01:08;13.20;99.90
29803;DHT22;16702;50.898;4.662;2024-03-02T15:01:48;13.20;99.90
29803;DHT22;16702;50.898;4.662;2024-03-02T15:04:39;13.20;99.90
29803;DHT22;16702;50.898;4.662;2024-03-02T15:07:58;13.20;99.90
29803;DHT22;16702;50.898;4.662;2024-03-02T15:11:00;13.10;99.90
29803;DHT22;16702;50.898;4.662;2024-03-02T15:14:27;13.10;99.90
29803;DHT22;16702;50.898;4.662;2024-03-02T15:17:15;13.10;99.90
29803;DHT22;16702;50.898;4.662;2024-03-02T15:20:03;13.10;99.90
29803;DHT22;16702;50.898;4.662;2024-03-02T15:25:47;13.10;99.90
29803;DHT22;16702;50.898;4.662;2024-03-02T15:26:55;13.10;99.90
29803;DHT22;16702;50.898;4.662;2024-03-02T15:30:06;13.10;99.90
29803;DHT22;16702;50.898;4.662;2024-03-02T15:33:04;13.00;99.90
29803;DHT22;16702;50.898;4.662;2024-03-02T15:36:50;13.10;99.90
29803;DHT22;16702;50.898;4.662;2024-03-02T15:42:20;13.00;99.90
29803;DHT22;16702;50.898;4.662;2024-03-02T15:43:22;13.00;99.90
29803;DHT22;16702;50.898;4.662;2024-03-02T15:48:58;13.00;99.90
29803;DHT22;16702;50.898;4.662;2024-03-02T15:49:36;13.00;99.90
29803;DHT22;16702;50.898;4.662;2024-03-02T15:55:05;13.00;99.90
29803;DHT22;16702;50.898;4.662;2024-03-02T15:56:57;13.00;99.90
29803;DHT22;16702;50.898;4.662;2024-03-02T15:59:57;13.00;99.90
29803;DHT22;16702;50.898;4.662;2024-03-02T16:03:06;13.10;99.90
29803;DHT22;16702;50.898;4.662;2024-03-02T16:06:17;13.10;99.90
29803;DHT22;16702;50.898;4.662;2024-03-02T16:08:53;13.10;99.90
29803;DHT22;16702;50.898;4.662;2024-03-02T16:12:52;13.10;99.90
29803;DHT22;16702;50.898;4.662;2024-03-02T16:15:27;13.00;99.90
29803;DHT22;16702;50.898;4.662;2024-03-02T16:18:30;12.90;99.90
29803;DHT22;16702;50.898;4.662;2024-03-02T16:21:58;13.00;99.90
29803;DHT22;16702;50.898;4.662;2024-03-02T16:26:00;13.00;99.90
29803;DHT22;16702;50.898;4.662;2024-03-02T16:29:37;12.90;99.90
29803;DHT22;16702;50.898;4.662;2024-03-02T16:32:12;13.00;99.90
29803;DHT22;16702;50.898;4.662;2024-03-02T16:37:21;12.80;99.90
29803;DHT22;16702;50.898;4.662;2024-03-02T16:38:54;12.90;99.90
29803;DHT22;16702;50.898;4.662;2024-03-02T16:42:10;12.80;99.90
29803;DHT22;16702;50.898;4.662;2024-03-02T16:48:43;12.80;99.90
29803;DHT22;16702;50.898;4.662;2024-03-02T16:52:17;12.80;99.90
29803;DHT22;16702;50.898;4.662;2024-03-02T16:55:20;12.80;99.90
29803;DHT22;16702;50.898;4.662;2024-03-02T16:58:26;12.80;99.90
29803;DHT22;16702;50.898;4.662;2024-03-02T17:01:26;12.80;99.90
29803;DHT22;16702;50.898;4.662;2024-03-02T17:04:35;12.70;99.90
29803;DHT22;16702;50.898;4.662;2024-03-02T17:08:04;12.70;99.90
29803;DHT22;16702;50.898;4.662;2024-03-02T17:10:54;12.80;99.90
29803;DHT22;16702;50.898;4.662;2024-03-02T17:13:46;12.70;99.90
29803;DHT22;16702;50.898;4.662;2024-03-02T17:17:33;12.70;99.90
29803;DHT22;16702;50.898;4.662;2024-03-02T17:20:37;12.70;99.90
29803;DHT22;16702;50.898;4.662;2024-03-02T17:26:47;12.60;99.90
29803;DHT22;16702;50.898;4.662;2024-03-02T17:30:14;12.60;99.90
29803;DHT22;16702;50.898;4.662;2024-03-02T17:32:59;12.60;99.90
29803;DHT22;16702;50.898;4.662;2024-03-02T17:35:52;12.60;99.90
29803;DHT22;16702;50.898;4.662;2024-03-02T17:39:05;12.60;99.90
29803;DHT22;16702;50.898;4.662;2024-03-02T17:42:12;12.60;99.90
29803;DHT22;16702;50.898;4.662;2024-03-02T17:45:31;12.40;99.90
29803;DHT22;16702;50.898;4.662;2024-03-02T17:48:44;12.50;99.90
29803;DHT22;16702;50.898;4.662;2024-03-02T17:52:05;12.50;99.90
29803;DHT22;16702;50.898;4.662;2024-03-02T17:54:48;12.40;99.90
29803;DHT22;16702;50.898;4.662;2024-03-02T17:58:16;12.40;99.90
29803;DHT22;16702;50.898;4.662;2024-03-02T18:01:28;12.30;99.90
29803;DHT22;16702;50.898;4.662;2024-03-02T18:04:21;12.30;99.90
29803;DHT22;16702;50.898;4.662;2024-03-02T18:07:08;12.30;99.90
29803;DHT22;16702;50.898;4.662;2024-03-02T18:09:57;12.30;99.90
29803;DHT22;16702;50.898;4.662;2024-03-02T18:13:06;12.30;99.90
29803;DHT22;16702;50.898;4.662;2024-03-02T18:16:29;12.30;99.90
29803;DHT22;16702;50.898;4.662;2024-03-02T18:22:41;12.30;99.90
29803;DHT22;16702;50.898;4.662;2024-03-02T18:25:36;12.20;99.90
29803;DHT22;16702;50.898;4.662;2024-03-02T18:28:33;12.20;99.90
29803;DHT22;16702;50.898;4.662;2024-03-02T18:31:40;12.20;99.90
29803;DHT22;16702;50.898;4.662;2024-03-02T18:34:38;12.30;99.90
29803;DHT22;16702;50.898;4.662;2024-03-02T18:37:44;12.20;99.90
29803;DHT22;16702;50.898;4.662;2024-03-02T18:41:44;12.10;99.90
29803;DHT22;16702;50.898;4.662;2024-03-02T18:44:49;12.10;99.90
29803;DHT22;16702;50.898;4.662;2024-03-02T18:47:52;12.10;99.90
29803;DHT22;16702;50.898;4.662;2024-03-02T18:52:32;12.10;99.90
29803;DHT22;16702;50.898;4.662;2024-03-02T18:55:04;12.10;99.90
29803;DHT22;16702;50.898;4.662;2024-03-02T18:58:18;12.00;99.90
29803;DHT22;16702;50.898;4.662;2024-03-02T19:01:24;12.10;99.90
29803;DHT22;16702;50.898;4.662;2024-03-02T19:04:18;12.00;99.90
29803;DHT22;16702;50.898;4.662;2024-03-02T19:08:05;12.00;99.90
29803;DHT22;16702;50.898;4.662;2024-03-02T19:10:36;12.00;99.90
29803;DHT22;16702;50.898;4.662;2024-03-02T19:13:20;12.00;99.90
29803;DHT22;16702;50.898;4.662;2024-03-02T19:16:09;12.00;99.90
29803;DHT22;16702;50.898;4.662;2024-03-02T19:19:23;11.90;99.90
29803;DHT22;16702;50.898;4.662;2024-03-02T19:22:21;12.00;99.90
29803;DHT22;16702;50.898;4.662;2024-03-02T19:25:10;12.00;99.90
29803;DHT22;16702;50.898;4.662;2024-03-02T19:31:58;12.00;99.90
29803;DHT22;16702;50.898;4.662;2024-03-02T19:35:45;12.00;99.90
29803;DHT22;16702;50.898;4.662;2024-03-02T19:39:54;11.90;99.90
29803;DHT22;16702;50.898;4.662;2024-03-02T19:42:22;11.90;99.90
29803;DHT22;16702;50.898;4.662;2024-03-02T19:45:30;11.90;99.90
29803;DHT22;16702;50.898;4.662;2024-03-02T19:49:06;11.90;99.90
29803;DHT22;16702;50.898;4.662;2024-03-02T19:52:52;11.80;99.90
29803;DHT22;16702;50.898;4.662;2024-03-02T19:55:38;11.90;99.90
29803;DHT22;16702;50.898;4.662;2024-03-02T20:02:28;12.00;99.90
29803;DHT22;16702;50.898;4.662;2024-03-02T20:08:49;11.90;99.90
29803;DHT22;16702;50.898;4.662;2024-03-02T20:12:04;11.90;99.90
29803;DHT22;16702;50.898;4.662;2024-03-02T20:15:49;11.90;99.90
29803;DHT22;16702;50.898;4.662;2024-03-02T20:18:41;11.90;99.90
29803;DHT22;16702;50.898;4.662;2024-03-02T20:21:40;11.80;99.90
29803;DHT22;16702;50.898;4.662;2024-03-02T20:24:56;11.80;99.90
29803;DHT22;16702;50.898;4.662;2024-03-02T20:28:07;11.80;99.90
29803;DHT22;16702;50.898;4.662;2024-03-02T20:31:27;11.80;99.90
29803;DHT22;16702;50.898;4.662;2024-03-02T20:37:32;11.80;99.90
29803;DHT22;16702;50.898;4.662;2024-03-02T20:38:47;11.80;99.90
29803;DHT22;16702;50.898;4.662;2024-03-02T20:42:12;11.80;99.90
29803;DHT22;16702;50.898;4.662;2024-03-02T20:45:34;11.90;99.90
29803;DHT22;16702;50.898;4.662;2024-03-02T20:48:39;11.80;99.90
29803;DHT22;16702;50.898;4.662;2024-03-02T20:54:33;11.90;99.90
29803;DHT22;16702;50.898;4.662;2024-03-02T20:55:24;11.80;99.90
29803;DHT22;16702;50.898;4.662;2024-03-02T20:58:22;11.80;99.90
29803;DHT22;16702;50.898;4.662;2024-03-02T21:01:46;11.70;99.90
29803;DHT22;16702;50.898;4.662;2024-03-02T21:04:51;11.70;99.90